sensor_id;sensor_type;location;lat;lon;timestamp;temperature;humidity
25214;DHT22;13160;51.834;4.706;2024-01-16T00:00:11;2.30;99.90
25214;DHT22;13160;51.834;4.706;2024-01-16T00:02:41;2.30;99.90
25214;DHT22;13160;51.834;4.706;2024-01-16T00:05:10;2.30;99.90
25214;DHT22;13160;51.834;4.706;2024-01-16T00:07:39;2.30;99.90
25214;DHT22;13160;51.834;4.706;2024-01-16T00:10:08;2.30;99.90
25214;DHT22;13160;51.834;4.706;2024-01-16T00:12:39;2.30;99.90
25214;DHT22;13160;51.834;4.706;2024-01-16T00:15:09;2.30;99.90
25214;DHT22;13160;51.834;4.706;2024-01-16T00:17:37;2.30;99.90
25214;DHT22;13160;51.834;4.706;2024-01-16T00:20:06;2.30;99.90
25214;DHT22;13160;51.834;4.706;2024-01-16T00:22:36;2.20;99.90
25214;DHT22;13160;51.834;4.706;2024-01-16T00:25:05;2.20;99.90
25214;DHT22;13160;51.834;4.706;2024-01-16T00:27:34;2.30;99.90
25214;DHT22;13160;51.834;4.706;2024-01-16T00:30:06;2.30;99.90
25214;DHT22;13160;51.834;4.706;2024-01-16T00:32:35;2.20;99.90
25214;DHT22;13160;51.834;4.706;2024-01-16T00:35:05;2.20;99.90
25214;DHT22;13160;51.834;4.706;2024-01-16T00:37:33;2.20;99.90
25214;DHT22;13160;51.834;4.706;2024-01-16T00:40:02;2.30;99.90
25214;DHT22;13160;51.834;4.706;2024-01-16T00:42:31;2.30;99.90
25214;DHT22;13160;51.834;4.706;2024-01-16T00:45:00;2.30;99.90
25214;DHT22;13160;51.834;4.706;2024-01-16T00:47:31;2.30;99.90
25214;DHT22;13160;51.834;4.706;2024-01-16T00:50:00;2.30;99.90
25214;DHT22;13160;51.834;4.706;2024-01-16T00:52:29;2.30;99.90
25214;DHT22;13160;51.834;4.706;2024-01-16T00:54:57;2.30;99.90
25214;DHT22;13160;51.834;4.706;2024-01-16T00:57:26;2.30;99.90
25214;DHT22;13160;51.834;4.706;2024-01-16T00:59:54;2.30;99.90
25214;DHT22;13160;51.834;4.706;2024-01-16T01:02:23;2.30;99.90
25214;DHT22;13160;51.834;4.706;2024-01-16T01:04:53;2.30;99.90
25214;DHT22;13160;51.834;4.706;2024-01-16T01:07:21;2.30;99.90
25214;DHT22;13160;51.834;4.706;2024-01-16T01:09:52;2.30;99.90
25214;DHT22;13160;51.834;4.706;2024-01-16T01:12:21;2.30;99.90
25214;DHT22;13160;51.834;4.706;2024-01-16T01:14:50;2.30;99.90
25214;DHT22;13160;51.834;4.706;2024-01-16T01:17:18;2.30;99.90
25214;DHT22;13160;51.834;4.706;2024-01-16T01:19:47;2.30;99.90
25214;DHT22;13160;51.834;4.706;2024-01-16T01:22:17;2.30;99.90
25214;DHT22;13160;51.834;4.706;2024-01-16T01:24:45;2.30;99.90
25214;DHT22;13160;51.834;4.706;2024-01-16T01:27:13;2.30;99.90
25214;DHT22;13160;51.834;4.706;2024-01-16T01:29:42;2.30;99.90
25214;DHT22;13160;51.834;4.706;2024-01-16T01:32:10;2.30;99.90
25214;DHT22;13160;51.834;4.706;2024-01-16T01:34:41;2.20;99.90
25214;DHT22;13160;51.834;4.706;2024-01-16T01:37:10;2.20;99.90
25214;DHT22;13160;51.834;4.706;2024-01-16T01:39:39;2.30;99.90
25214;DHT22;13160;51.834;4.706;2024-01-16T01:42:08;2.30;99.90
25214;DHT22;13160;51.834;4.706;2024-01-16T01:44:36;2.20;99.90
25214;DHT22;13160;51.834;4.706;2024-01-16T01:47:05;2.30;99.90
25214;DHT22;13160;51.834;4.706;2024-01-16T01:49:33;2.30;99.90
25214;DHT22;13160;51.834;4.706;2024-01-16T01:52:03;2.30;99.90
25214;DHT22;13160;51.834;4.706;2024-01-16T01:54:34;2.30;99.90
25214;DHT22;13160;51.834;4.706;2024-01-16T01:57:07;2.30;99.90
25214;DHT22;13160;51.834;4.706;2024-01-16T01:59:37;2.30;99.90
25214;DHT22;13160;51.834;4.706;2024-01-16T02:02:05;2.30;99.90
25214;DHT22;13160;51.834;4.706;2024-01-16T02:04:34;2.30;99.90
25214;DHT22;13160;51.834;4.706;2024-01-16T02:07:04;2.30;99.90
25214;DHT22;13160;51.834;4.706;2024-01-16T02:09:33;2.30;99.90
25214;DHT22;13160;51.834;4.706;2024-01-16T02:12:03;2.30;99.90
25214;DHT22;13160;51.834;4.706;2024-01-16T02:14:34;2.30;99.90
25214;DHT22;13160;51.834;4.706;2024-01-16T02:17:02;2.30;99.90
25214;DHT22;13160;51.834;4.706;2024-01-16T02:19:33;2.30;99.90
25214;DHT22;13160;51.834;4.706;2024-01-16T02:22:04;2.20;99.90
25214;DHT22;13160;51.834;4.706;2024-01-16T02:24:36;2.30;99.90
25214;DHT22;13160;51.834;4.706;2024-01-16T02:27:05;2.20;99.90
25214;DHT22;13160;51.834;4.706;2024-01-16T02:29:33;2.30;99.90
25214;DHT22;13160;51.834;4.706;2024-01-16T02:32:04;2.30;99.90
25214;DHT22;13160;51.834;4.706;2024-01-16T02:34:33;2.20;99.90
25214;DHT22;13160;51.834;4.706;2024-01-16T02:37:01;2.20;99.90
25214;DHT22;13160;51.834;4.706;2024-01-16T02:39:29;2.20;99.90
25214;DHT22;13160;51.834;4.706;2024-01-16T02:41:59;2.20;99.90
25214;DHT22;13160;51.834;4.706;2024-01-16T02:44:28;2.20;99.90
25214;DHT22;13160;51.834;4.706;2024-01-16T02:46:57;2.20;99.90
25214;DHT22;13160;51.834;4.706;2024-01-16T02:49:25;2.20;99.90
25214;DHT22;13160;51.834;4.706;2024-01-16T02:51:54;2.20;99.90
25214;DHT22;13160;51.834;4.706;2024-01-16T02:54:22;2.20;99.90
25214;DHT22;13160;51.834;4.706;2024-01-16T02:56:51;2.20;99.90
25214;DHT22;13160;51.834;4.706;2024-01-16T02:59:21;2.20;99.90
25214;DHT22;13160;51.834;4.706;2024-01-16T03:01:49;2.20;99.90
25214;DHT22;13160;51.834;4.706;2024-01-16T03:04:18;2.20;99.90
25214;DHT22;13160;51.834;4.706;2024-01-16T03:06:46;2.20;99.90
25214;DHT22;13160;51.834;4.706;2024-01-16T03:09:15;2.30;99.90
25214;DHT22;13160;51.834;4.706;2024-01-16T03:11:44;2.20;99.90
25214;DHT22;13160;51.834;4.706;2024-01-16T03:14:12;2.30;99.90
25214;DHT22;13160;51.834;4.706;2024-01-16T03:16:42;2.20;99.90
25214;DHT22;13160;51.834;4.706;2024-01-16T03:19:12;2.20;99.90
25214;DHT22;13160;51.834;4.706;2024-01-16T03:21:40;2.20;99.90
25214;DHT22;13160;51.834;4.706;2024-01-16T03:24:09;2.20;99.90
25214;DHT22;13160;51.834;4.706;2024-01-16T03:26:38;2.20;99.90
25214;DHT22;13160;51.834;4.706;2024-01-16T03:29:07;2.30;99.90
25214;DHT22;13160;51.834;4.706;2024-01-16T03:31:35;2.30;99.90
25214;DHT22;13160;51.834;4.706;2024-01-16T03:34:05;2.30;99.90
25214;DHT22;13160;51.834;4.706;2024-01-16T03:36:37;2.30;99.90
25214;DHT22;13160;51.834;4.706;2024-01-16T03:39:06;2.20;99.90
25214;DHT22;13160;51.834;4.706;2024-01-16T03:41:36;2.30;99.90
25214;DHT22;13160;51.834;4.706;2024-01-16T03:44:04;2.30;99.90
25214;DHT22;13160;51.834;4.706;2024-01-16T03:46:33;2.30;99.90
25214;DHT22;13160;51.834;4.706;2024-01-16T03:49:01;2.30;99.90
25214;DHT22;13160;51.834;4.706;2024-01-16T03:51:32;2.30;99.90
25214;DHT22;13160;51.834;4.706;2024-01-16T03:54:00;2.30;99.90
25214;DHT22;13160;51.834;4.706;2024-01-16T03:56:29;2.20;99.90
25214;DHT22;13160;51.834;4.706;2024-01-16T03:58:57;2.30;99.90
25214;DHT22;13160;51.834;4.706;2024-01-16T04:01:32;2.30;99.90
25214;DHT22;13160;51.834;4.706;2024-01-16T04:04:00;2.30;99.90
25214;DHT22;13160;51.834;4.706;2024-01-16T04:06:30;2.30;99.90
25214;DHT22;13160;51.834;4.706;2024-01-16T04:08:59;2.30;99.90
25214;DHT22;13160;51.834;4.706;2024-01-16T04:11:28;2.30;99.90
25214;DHT22;13160;51.834;4.706;2024-01-16T04:13:57;2.30;99.90
25214;DHT22;13160;51.834;4.706;2024-01-16T04:16:25;2.30;99.90
25214;DHT22;13160;51.834;4.706;2024-01-16T04:18:53;2.30;99.90
25214;DHT22;13160;51.834;4.706;2024-01-16T04:21:22;2.20;99.90
25214;DHT22;13160;51.834;4.706;2024-01-16T04:23:55;2.20;99.90
25214;DHT22;13160;51.834;4.706;2024-01-16T04:26:23;2.30;99.90
25214;DHT22;13160;51.834;4.706;2024-01-16T04:28:52;2.30;99.90
25214;DHT22;13160;51.834;4.706;2024-01-16T04:31:20;2.30;99.90
25214;DHT22;13160;51.834;4.706;2024-01-16T04:33:49;2.30;99.90
25214;DHT22;13160;51.834;4.706;2024-01-16T04:36:18;2.20;99.90
25214;DHT22;13160;51.834;4.706;2024-01-16T04:38:46;2.30;99.90
25214;DHT22;13160;51.834;4.706;2024-01-16T04:41:19;2.30;99.90
25214;DHT22;13160;51.834;4.706;2024-01-16T04:43:47;2.30;99.90
25214;DHT22;13160;51.834;4.706;2024-01-16T04:46:17;2.30;99.90
25214;DHT22;13160;51.834;4.706;2024-01-16T04:48:45;2.30;99.90
25214;DHT22;13160;51.834;4.706;2024-01-16T04:51:12;2.30;99.90
25214;DHT22;13160;51.834;4.706;2024-01-16T04:53:41;2.30;99.90
25214;DHT22;13160;51.834;4.706;2024-01-16T04:56:09;2.30;99.90
25214;DHT22;13160;51.834;4.706;2024-01-16T04:58:39;2.30;99.90
25214;DHT22;13160;51.834;4.706;2024-01-16T05:01:08;2.40;99.90
25214;DHT22;13160;51.834;4.706;2024-01-16T05:03:40;2.40;99.90
25214;DHT22;13160;51.834;4.706;2024-01-16T05:06:14;2.30;99.90
25214;DHT22;13160;51.834;4.706;2024-01-16T05:09:01;2.40;99.90
25214;DHT22;13160;51.834;4.706;2024-01-16T05:11:30;2.40;99.90
25214;DHT22;13160;51.834;4.706;2024-01-16T05:14:01;2.40;99.90
25214;DHT22;13160;51.834;4.706;2024-01-16T05:16:30;2.40;99.90
25214;DHT22;13160;51.834;4.706;2024-01-16T05:18:58;2.40;99.90
25214;DHT22;13160;51.834;4.706;2024-01-16T05:21:28;2.40;99.90
25214;DHT22;13160;51.834;4.706;2024-01-16T05:23:57;2.40;99.90
25214;DHT22;13160;51.834;4.706;2024-01-16T05:26:26;2.40;99.90
25214;DHT22;13160;51.834;4.706;2024-01-16T05:28:55;2.40;99.90
25214;DHT22;13160;51.834;4.706;2024-01-16T05:31:25;2.40;99.90
25214;DHT22;13160;51.834;4.706;2024-01-16T05:33:54;2.40;99.90
25214;DHT22;13160;51.834;4.706;2024-01-16T05:36:26;2.40;99.90
25214;DHT22;13160;51.834;4.706;2024-01-16T05:38:56;2.40;99.90
25214;DHT22;13160;51.834;4.706;2024-01-16T05:41:25;2.40;99.90
25214;DHT22;13160;51.834;4.706;2024-01-16T05:43:56;2.40;99.90
25214;DHT22;13160;51.834;4.706;2024-01-16T05:46:26;2.40;99.90
25214;DHT22;13160;51.834;4.706;2024-01-16T05:48:55;2.40;99.90
25214;DHT22;13160;51.834;4.706;2024-01-16T05:51:27;2.40;99.90
25214;DHT22;13160;51.834;4.706;2024-01-16T05:53:56;2.50;99.90
25214;DHT22;13160;51.834;4.706;2024-01-16T05:56:25;2.50;99.90
25214;DHT22;13160;51.834;4.706;2024-01-16T05:58:54;2.50;99.90
25214;DHT22;13160;51.834;4.706;2024-01-16T06:01:30;2.40;99.90
25214;DHT22;13160;51.834;4.706;2024-01-16T06:03:59;2.50;99.90
25214;DHT22;13160;51.834;4.706;2024-01-16T06:06:28;2.50;99.90
25214;DHT22;13160;51.834;4.706;2024-01-16T06:08:57;2.50;99.90
25214;DHT22;13160;51.834;4.706;2024-01-16T06:11:32;2.40;99.90
25214;DHT22;13160;51.834;4.706;2024-01-16T06:14:01;2.40;99.90
25214;DHT22;13160;51.834;4.706;2024-01-16T06:16:33;2.40;99.90
25214;DHT22;13160;51.834;4.706;2024-01-16T06:19:01;2.40;99.90
25214;DHT22;13160;51.834;4.706;2024-01-16T06:21:33;2.40;99.90
25214;DHT22;13160;51.834;4.706;2024-01-16T06:24:05;2.40;99.90
25214;DHT22;13160;51.834;4.706;2024-01-16T06:26:34;2.30;99.90
25214;DHT22;13160;51.834;4.706;2024-01-16T06:29:40;2.40;99.90
25214;DHT22;13160;51.834;4.706;2024-01-16T06:32:35;2.40;99.90
25214;DHT22;13160;51.834;4.706;2024-01-16T06:35:05;2.40;99.90
25214;DHT22;13160;51.834;4.706;2024-01-16T06:37:36;2.40;99.90
25214;DHT22;13160;51.834;4.706;2024-01-16T06:40:06;2.40;99.90
25214;DHT22;13160;51.834;4.706;2024-01-16T06:42:35;2.40;99.90
25214;DHT22;13160;51.834;4.706;2024-01-16T06:45:04;2.40;99.90
25214;DHT22;13160;51.834;4.706;2024-01-16T06:47:35;2.40;99.90
25214;DHT22;13160;51.834;4.706;2024-01-16T06:50:04;2.40;99.90
25214;DHT22;13160;51.834;4.706;2024-01-16T06:52:34;2.40;99.90
25214;DHT22;13160;51.834;4.706;2024-01-16T06:55:04;2.40;99.90
25214;DHT22;13160;51.834;4.706;2024-01-16T06:57:33;2.40;99.90
25214;DHT22;13160;51.834;4.706;2024-01-16T07:00:01;2.40;99.90
25214;DHT22;13160;51.834;4.706;2024-01-16T07:02:35;2.40;99.90
25214;DHT22;13160;51.834;4.706;2024-01-16T07:05:19;2.40;99.90
25214;DHT22;13160;51.834;4.706;2024-01-16T07:07:48;2.40;99.90
25214;DHT22;13160;51.834;4.706;2024-01-16T07:10:17;2.30;99.90
25214;DHT22;13160;51.834;4.706;2024-01-16T07:12:49;2.40;99.90
25214;DHT22;13160;51.834;4.706;2024-01-16T07:15:19;2.40;99.90
25214;DHT22;13160;51.834;4.706;2024-01-16T07:17:49;2.40;99.90
25214;DHT22;13160;51.834;4.706;2024-01-16T07:20:17;2.40;99.90
25214;DHT22;13160;51.834;4.706;2024-01-16T07:22:46;2.40;99.90
25214;DHT22;13160;51.834;4.706;2024-01-16T07:25:15;2.40;99.90
25214;DHT22;13160;51.834;4.706;2024-01-16T07:27:44;2.40;99.90
25214;DHT22;13160;51.834;4.706;2024-01-16T07:30:15;2.30;99.90
25214;DHT22;13160;51.834;4.706;2024-01-16T07:32:44;2.40;99.90
25214;DHT22;13160;51.834;4.706;2024-01-16T07:35:14;2.40;99.90
25214;DHT22;13160;51.834;4.706;2024-01-16T07:37:43;2.40;99.90
25214;DHT22;13160;51.834;4.706;2024-01-16T07:40:11;2.40;99.90
25214;DHT22;13160;51.834;4.706;2024-01-16T07:42:40;2.40;99.90
25214;DHT22;13160;51.834;4.706;2024-01-16T07:45:08;2.40;99.90
25214;DHT22;13160;51.834;4.706;2024-01-16T07:47:37;2.40;99.90
25214;DHT22;13160;51.834;4.706;2024-01-16T07:50:07;2.40;99.90
25214;DHT22;13160;51.834;4.706;2024-01-16T07:52:38;2.40;99.90
25214;DHT22;13160;51.834;4.706;2024-01-16T07:55:08;2.40;99.90
25214;DHT22;13160;51.834;4.706;2024-01-16T07:57:36;2.40;99.90
25214;DHT22;13160;51.834;4.706;2024-01-16T08:00:06;2.40;99.90
25214;DHT22;13160;51.834;4.706;2024-01-16T08:02:38;2.40;99.90
25214;DHT22;13160;51.834;4.706;2024-01-16T08:05:09;2.40;99.90
25214;DHT22;13160;51.834;4.706;2024-01-16T08:07:40;2.40;99.90
25214;DHT22;13160;51.834;4.706;2024-01-16T08:10:10;2.40;99.90
25214;DHT22;13160;51.834;4.706;2024-01-16T08:12:42;2.40;99.90
25214;DHT22;13160;51.834;4.706;2024-01-16T08:15:11;2.40;99.90
25214;DHT22;13160;51.834;4.706;2024-01-16T08:17:39;2.40;99.90
25214;DHT22;13160;51.834;4.706;2024-01-16T08:20:09;2.40;99.90
25214;DHT22;13160;51.834;4.706;2024-01-16T08:22:40;2.40;99.90
25214;DHT22;13160;51.834;4.706;2024-01-16T08:25:08;2.40;99.90
25214;DHT22;13160;51.834;4.706;2024-01-16T08:27:37;2.40;99.90
25214;DHT22;13160;51.834;4.706;2024-01-16T08:30:07;2.40;99.90
25214;DHT22;13160;51.834;4.706;2024-01-16T08:32:37;2.40;99.90
25214;DHT22;13160;51.834;4.706;2024-01-16T08:35:06;2.40;99.90
25214;DHT22;13160;51.834;4.706;2024-01-16T08:37:36;2.40;99.90
25214;DHT22;13160;51.834;4.706;2024-01-16T08:40:11;2.50;99.90
25214;DHT22;13160;51.834;4.706;2024-01-16T08:42:42;2.40;99.90
25214;DHT22;13160;51.834;4.706;2024-01-16T08:45:11;2.50;99.90
25214;DHT22;13160;51.834;4.706;2024-01-16T08:47:44;2.50;99.90
25214;DHT22;13160;51.834;4.706;2024-01-16T08:50:14;2.40;99.90
25214;DHT22;13160;51.834;4.706;2024-01-16T08:52:47;2.50;99.90
25214;DHT22;13160;51.834;4.706;2024-01-16T08:55:20;2.50;99.90
25214;DHT22;13160;51.834;4.706;2024-01-16T08:57:50;2.50;99.90
25214;DHT22;13160;51.834;4.706;2024-01-16T09:00:19;2.50;99.90
25214;DHT22;13160;51.834;4.706;2024-01-16T09:02:51;2.50;99.90
25214;DHT22;13160;51.834;4.706;2024-01-16T09:05:20;2.50;99.90
25214;DHT22;13160;51.834;4.706;2024-01-16T09:07:53;2.60;99.90
25214;DHT22;13160;51.834;4.706;2024-01-16T09:10:24;2.60;99.90
25214;DHT22;13160;51.834;4.706;2024-01-16T09:12:54;2.60;99.90
25214;DHT22;13160;51.834;4.706;2024-01-16T09:15:26;2.60;99.90
25214;DHT22;13160;51.834;4.706;2024-01-16T09:17:55;2.50;99.90
25214;DHT22;13160;51.834;4.706;2024-01-16T09:20:24;2.60;99.90
25214;DHT22;13160;51.834;4.706;2024-01-16T09:22:53;2.60;99.90
25214;DHT22;13160;51.834;4.706;2024-01-16T09:25:24;2.60;99.90
25214;DHT22;13160;51.834;4.706;2024-01-16T09:27:54;2.60;99.90
25214;DHT22;13160;51.834;4.706;2024-01-16T09:30:25;2.60;99.90
25214;DHT22;13160;51.834;4.706;2024-01-16T09:32:58;2.60;99.90
25214;DHT22;13160;51.834;4.706;2024-01-16T09:35:27;2.70;99.90
25214;DHT22;13160;51.834;4.706;2024-01-16T09:37:57;2.70;99.90
25214;DHT22;13160;51.834;4.706;2024-01-16T09:40:28;2.60;99.90
25214;DHT22;13160;51.834;4.706;2024-01-16T09:42:57;2.70;99.90
25214;DHT22;13160;51.834;4.706;2024-01-16T09:45:29;2.70;99.90
25214;DHT22;13160;51.834;4.706;2024-01-16T09:47:59;2.70;99.90
25214;DHT22;13160;51.834;4.706;2024-01-16T09:50:29;2.70;99.90
25214;DHT22;13160;51.834;4.706;2024-01-16T09:52:58;2.70;99.90
25214;DHT22;13160;51.834;4.706;2024-01-16T09:55:30;2.70;99.90
25214;DHT22;13160;51.834;4.706;2024-01-16T09:58:07;2.70;99.90
25214;DHT22;13160;51.834;4.706;2024-01-16T10:00:43;2.80;99.90
25214;DHT22;13160;51.834;4.706;2024-01-16T10:03:13;2.80;99.90
25214;DHT22;13160;51.834;4.706;2024-01-16T10:05:42;2.80;99.90
25214;DHT22;13160;51.834;4.706;2024-01-16T10:08:12;2.80;99.90
25214;DHT22;13160;51.834;4.706;2024-01-16T10:10:42;2.80;99.90
25214;DHT22;13160;51.834;4.706;2024-01-16T10:13:17;2.80;99.90
25214;DHT22;13160;51.834;4.706;2024-01-16T10:15:49;2.80;99.90
25214;DHT22;13160;51.834;4.706;2024-01-16T10:18:23;2.90;99.90
25214;DHT22;13160;51.834;4.706;2024-01-16T10:20:52;2.90;99.90
25214;DHT22;13160;51.834;4.706;2024-01-16T10:23:24;2.90;99.90
25214;DHT22;13160;51.834;4.706;2024-01-16T10:26:15;2.90;99.90
25214;DHT22;13160;51.834;4.706;2024-01-16T10:28:45;2.90;99.90
25214;DHT22;13160;51.834;4.706;2024-01-16T10:31:13;3.00;99.90
25214;DHT22;13160;51.834;4.706;2024-01-16T10:33:42;3.00;99.90
25214;DHT22;13160;51.834;4.706;2024-01-16T10:36:12;3.00;99.90
25214;DHT22;13160;51.834;4.706;2024-01-16T10:38:44;3.00;99.90
25214;DHT22;13160;51.834;4.706;2024-01-16T10:41:14;3.00;99.90
25214;DHT22;13160;51.834;4.706;2024-01-16T10:43:45;3.10;99.90
25214;DHT22;13160;51.834;4.706;2024-01-16T10:46:14;3.10;99.90
25214;DHT22;13160;51.834;4.706;2024-01-16T10:48:44;3.10;99.90
25214;DHT22;13160;51.834;4.706;2024-01-16T10:51:14;3.10;99.90
25214;DHT22;13160;51.834;4.706;2024-01-16T10:53:44;3.20;99.90
25214;DHT22;13160;51.834;4.706;2024-01-16T10:56:15;3.20;99.90
25214;DHT22;13160;51.834;4.706;2024-01-16T10:58:49;3.20;99.90
25214;DHT22;13160;51.834;4.706;2024-01-16T11:01:24;3.20;99.90
25214;DHT22;13160;51.834;4.706;2024-01-16T11:03:54;3.20;99.90
25214;DHT22;13160;51.834;4.706;2024-01-16T11:06:24;3.20;99.90
25214;DHT22;13160;51.834;4.706;2024-01-16T11:08:54;3.20;99.90
25214;DHT22;13160;51.834;4.706;2024-01-16T11:11:27;3.30;99.90
25214;DHT22;13160;51.834;4.706;2024-01-16T11:13:57;3.30;99.90
25214;DHT22;13160;51.834;4.706;2024-01-16T11:16:26;3.30;99.90
25214;DHT22;13160;51.834;4.706;2024-01-16T11:18:56;3.30;99.90
25214;DHT22;13160;51.834;4.706;2024-01-16T11:21:44;3.40;99.90
25214;DHT22;13160;51.834;4.706;2024-01-16T11:24:14;3.40;99.90
25214;DHT22;13160;51.834;4.706;2024-01-16T11:26:43;3.40;99.90
25214;DHT22;13160;51.834;4.706;2024-01-16T11:29:34;3.40;99.90
25214;DHT22;13160;51.834;4.706;2024-01-16T11:32:04;3.40;99.90
25214;DHT22;13160;51.834;4.706;2024-01-16T11:34:53;3.50;99.90
25214;DHT22;13160;51.834;4.706;2024-01-16T11:37:27;3.50;99.90
25214;DHT22;13160;51.834;4.706;2024-01-16T11:40:21;3.60;99.90
25214;DHT22;13160;51.834;4.706;2024-01-16T11:42:55;3.60;99.90
25214;DHT22;13160;51.834;4.706;2024-01-16T11:45:49;3.70;99.90
25214;DHT22;13160;51.834;4.706;2024-01-16T11:48:21;3.70;99.90
25214;DHT22;13160;51.834;4.706;2024-01-16T11:50:49;3.70;99.90
25214;DHT22;13160;51.834;4.706;2024-01-16T11:53:37;3.80;99.90
25214;DHT22;13160;51.834;4.706;2024-01-16T11:56:34;3.80;99.90
25214;DHT22;13160;51.834;4.706;2024-01-16T12:02:51;3.80;99.90
25214;DHT22;13160;51.834;4.706;2024-01-16T12:05:21;3.90;99.90
25214;DHT22;13160;51.834;4.706;2024-01-16T12:07:51;3.90;99.90
25214;DHT22;13160;51.834;4.706;2024-01-16T12:10:22;3.80;99.90
25214;DHT22;13160;51.834;4.706;2024-01-16T12:12:58;3.80;99.90
25214;DHT22;13160;51.834;4.706;2024-01-16T12:15:33;3.90;99.90
25214;DHT22;13160;51.834;4.706;2024-01-16T12:18:01;3.90;99.90
25214;DHT22;13160;51.834;4.706;2024-01-16T12:20:35;3.90;99.90
25214;DHT22;13160;51.834;4.706;2024-01-16T12:23:05;3.90;99.90
25214;DHT22;13160;51.834;4.706;2024-01-16T12:25:37;3.90;99.90
25214;DHT22;13160;51.834;4.706;2024-01-16T12:28:26;3.90;99.90
25214;DHT22;13160;51.834;4.706;2024-01-16T12:31:01;3.90;99.90
25214;DHT22;13160;51.834;4.706;2024-01-16T12:33:33;3.90;99.90
25214;DHT22;13160;51.834;4.706;2024-01-16T12:36:03;3.90;99.90
25214;DHT22;13160;51.834;4.706;2024-01-16T12:38:33;3.90;99.90
25214;DHT22;13160;51.834;4.706;2024-01-16T12:41:05;3.90;99.90
25214;DHT22;13160;51.834;4.706;2024-01-16T12:43:37;3.90;99.90
25214;DHT22;13160;51.834;4.706;2024-01-16T12:46:07;3.80;99.90
25214;DHT22;13160;51.834;4.706;2024-01-16T12:48:36;3.90;99.90
25214;DHT22;13160;51.834;4.706;2024-01-16T12:51:22;3.90;99.90
25214;DHT22;13160;51.834;4.706;2024-01-16T12:53:52;3.90;99.90
25214;DHT22;13160;51.834;4.706;2024-01-16T12:56:21;3.90;99.90
25214;DHT22;13160;51.834;4.706;2024-01-16T12:59:09;3.80;99.90
25214;DHT22;13160;51.834;4.706;2024-01-16T13:01:42;3.90;99.90
25214;DHT22;13160;51.834;4.706;2024-01-16T13:04:11;3.90;99.90
25214;DHT22;13160;51.834;4.706;2024-01-16T13:06:44;3.90;99.90
25214;DHT22;13160;51.834;4.706;2024-01-16T13:09:15;3.90;99.90
25214;DHT22;13160;51.834;4.706;2024-01-16T13:11:48;3.90;99.90
25214;DHT22;13160;51.834;4.706;2024-01-16T13:14:23;3.80;99.90
25214;DHT22;13160;51.834;4.706;2024-01-16T13:16:54;3.80;99.90
25214;DHT22;13160;51.834;4.706;2024-01-16T13:19:24;3.80;99.90
25214;DHT22;13160;51.834;4.706;2024-01-16T13:21:53;3.90;99.90
25214;DHT22;13160;51.834;4.706;2024-01-16T13:24:23;4.00;99.90
25214;DHT22;13160;51.834;4.706;2024-01-16T13:26:51;4.10;99.90
25214;DHT22;13160;51.834;4.706;2024-01-16T13:29:20;4.20;99.90
25214;DHT22;13160;51.834;4.706;2024-01-16T13:31:48;4.20;99.90
25214;DHT22;13160;51.834;4.706;2024-01-16T13:34:23;4.10;99.90
25214;DHT22;13160;51.834;4.706;2024-01-16T13:36:54;4.10;99.90
25214;DHT22;13160;51.834;4.706;2024-01-16T13:39:44;4.10;99.90
25214;DHT22;13160;51.834;4.706;2024-01-16T13:42:12;4.20;99.90
25214;DHT22;13160;51.834;4.706;2024-01-16T13:44:45;4.30;99.90
25214;DHT22;13160;51.834;4.706;2024-01-16T13:47:15;4.30;99.90
25214;DHT22;13160;51.834;4.706;2024-01-16T13:49:50;4.30;99.90
25214;DHT22;13160;51.834;4.706;2024-01-16T13:52:19;4.40;99.90
25214;DHT22;13160;51.834;4.706;2024-01-16T13:54:52;4.50;99.90
25214;DHT22;13160;51.834;4.706;2024-01-16T13:57:21;4.50;99.90
25214;DHT22;13160;51.834;4.706;2024-01-16T13:59:49;4.40;99.90
25214;DHT22;13160;51.834;4.706;2024-01-16T14:02:18;4.40;99.90
25214;DHT22;13160;51.834;4.706;2024-01-16T14:04:47;4.30;99.90
25214;DHT22;13160;51.834;4.706;2024-01-16T14:07:16;4.30;99.90
25214;DHT22;13160;51.834;4.706;2024-01-16T14:09:45;4.20;99.90
25214;DHT22;13160;51.834;4.706;2024-01-16T14:12:14;4.20;99.90
25214;DHT22;13160;51.834;4.706;2024-01-16T14:14:42;4.20;99.90
25214;DHT22;13160;51.834;4.706;2024-01-16T14:17:11;4.20;99.90
25214;DHT22;13160;51.834;4.706;2024-01-16T14:19:40;4.30;99.90
25214;DHT22;13160;51.834;4.706;2024-01-16T14:22:09;4.20;99.90
25214;DHT22;13160;51.834;4.706;2024-01-16T14:24:39;4.20;99.90
25214;DHT22;13160;51.834;4.706;2024-01-16T14:27:07;4.20;99.90
25214;DHT22;13160;51.834;4.706;2024-01-16T14:29:38;4.20;99.90
25214;DHT22;13160;51.834;4.706;2024-01-16T14:32:07;4.10;99.90
25214;DHT22;13160;51.834;4.706;2024-01-16T14:34:37;4.10;99.90
25214;DHT22;13160;51.834;4.706;2024-01-16T14:37:05;4.00;99.90
25214;DHT22;13160;51.834;4.706;2024-01-16T14:39:34;4.00;99.90
25214;DHT22;13160;51.834;4.706;2024-01-16T14:42:05;3.90;99.90
25214;DHT22;13160;51.834;4.706;2024-01-16T14:44:34;3.90;99.90
25214;DHT22;13160;51.834;4.706;2024-01-16T14:47:03;3.80;99.90
25214;DHT22;13160;51.834;4.706;2024-01-16T14:49:32;3.80;99.90
25214;DHT22;13160;51.834;4.706;2024-01-16T14:52:01;3.80;99.90
25214;DHT22;13160;51.834;4.706;2024-01-16T14:54:30;3.70;99.90
25214;DHT22;13160;51.834;4.706;2024-01-16T14:56:59;3.70;99.90
25214;DHT22;13160;51.834;4.706;2024-01-16T14:59:29;3.70;99.90
25214;DHT22;13160;51.834;4.706;2024-01-16T15:01:57;3.70;99.90
25214;DHT22;13160;51.834;4.706;2024-01-16T15:04:26;3.70;99.90
25214;DHT22;13160;51.834;4.706;2024-01-16T15:06:54;3.60;99.90
25214;DHT22;13160;51.834;4.706;2024-01-16T15:09:23;3.60;99.90
25214;DHT22;13160;51.834;4.706;2024-01-16T15:11:51;3.60;99.90
25214;DHT22;13160;51.834;4.706;2024-01-16T15:14:20;3.50;99.90
25214;DHT22;13160;51.834;4.706;2024-01-16T15:16:50;3.50;99.90
25214;DHT22;13160;51.834;4.706;2024-01-16T15:19:18;3.50;99.90
25214;DHT22;13160;51.834;4.706;2024-01-16T15:21:47;3.50;99.90
25214;DHT22;13160;51.834;4.706;2024-01-16T15:24:16;3.40;99.90
25214;DHT22;13160;51.834;4.706;2024-01-16T15:26:48;3.40;99.90
25214;DHT22;13160;51.834;4.706;2024-01-16T15:29:17;3.40;99.90
25214;DHT22;13160;51.834;4.706;2024-01-16T15:31:46;3.40;99.90
25214;DHT22;13160;51.834;4.706;2024-01-16T15:34:16;3.30;99.90
25214;DHT22;13160;51.834;4.706;2024-01-16T15:36:44;3.30;99.90
25214;DHT22;13160;51.834;4.706;2024-01-16T15:39:14;3.30;99.90
25214;DHT22;13160;51.834;4.706;2024-01-16T15:41:44;3.30;99.90
25214;DHT22;13160;51.834;4.706;2024-01-16T15:44:12;3.30;99.90
25214;DHT22;13160;51.834;4.706;2024-01-16T15:46:57;3.30;99.90
25214;DHT22;13160;51.834;4.706;2024-01-16T15:49:27;3.30;99.90
25214;DHT22;13160;51.834;4.706;2024-01-16T15:51:59;3.20;99.90
25214;DHT22;13160;51.834;4.706;2024-01-16T15:54:28;3.30;99.90
25214;DHT22;13160;51.834;4.706;2024-01-16T15:56:58;3.20;99.90
25214;DHT22;13160;51.834;4.706;2024-01-16T15:59:27;3.20;99.90
25214;DHT22;13160;51.834;4.706;2024-01-16T16:01:56;3.20;99.90
25214;DHT22;13160;51.834;4.706;2024-01-16T16:04:31;3.10;99.90
25214;DHT22;13160;51.834;4.706;2024-01-16T16:06:59;3.10;99.90
25214;DHT22;13160;51.834;4.706;2024-01-16T16:09:28;3.10;99.90